sensor_id;sensor_type;location;lat;lon;timestamp;pressure;altitude;pressure_sealevel;temperature;humidity
80988;BME280;70452;39.386;-3.210;2023-07-22T00:00:29;94128.91;;;24.97;22.56
80988;BME280;70452;39.386;-3.210;2023-07-22T00:03:18;94123.00;;;25.02;22.26
80988;BME280;70452;39.386;-3.210;2023-07-22T00:06:29;94123.75;;;24.99;22.42
80988;BME280;70452;39.386;-3.210;2023-07-22T00:09:09;94112.69;;;25.06;22.54
80988;BME280;70452;39.386;-3.210;2023-07-22T00:11:45;94115.22;;;25.15;23.58
80988;BME280;70452;39.386;-3.210;2023-07-22T00:14:24;94110.38;;;25.12;23.01
80988;BME280;70452;39.386;-3.210;2023-07-22T00:16:50;94110.44;;;25.16;22.74
80988;BME280;70452;39.386;-3.210;2023-07-22T00:19:30;94102.94;;;25.23;22.79
80988;BME280;70452;39.386;-3.210;2023-07-22T00:22:05;94112.25;;;25.31;23.12
80988;BME280;70452;39.386;-3.210;2023-07-22T00:24:38;94112.00;;;25.43;23.73
80988;BME280;70452;39.386;-3.210;2023-07-22T00:27:11;94108.38;;;25.39;23.29
80988;BME280;70452;39.386;-3.210;2023-07-22T00:29:54;94110.69;;;25.34;22.90
80988;BME280;70452;39.386;-3.210;2023-07-22T00:32:31;94118.28;;;25.37;23.64
80988;BME280;70452;39.386;-3.210;2023-07-22T00:35:05;94111.06;;;25.32;22.55
80988;BME280;70452;39.386;-3.210;2023-07-22T00:37:54;94113.63;;;25.18;22.51
80988;BME280;70452;39.386;-3.210;2023-07-22T00:40:34;94121.50;;;25.08;22.90
80988;BME280;70452;39.386;-3.210;2023-07-22T00:43:06;94109.91;;;25.06;24.24
80988;BME280;70452;39.386;-3.210;2023-07-22T00:45:41;94116.22;;;25.00;22.76
80988;BME280;70452;39.386;-3.210;2023-07-22T00:48:24;94107.59;;;24.82;23.22
80988;BME280;70452;39.386;-3.210;2023-07-22T00:50:56;94116.03;;;24.89;23.26
80988;BME280;70452;39.386;-3.210;2023-07-22T00:53:32;94116.41;;;24.87;22.86
80988;BME280;70452;39.386;-3.210;2023-07-22T00:56:10;94120.34;;;24.83;22.70
80988;BME280;70452;39.386;-3.210;2023-07-22T00:58:55;94117.78;;;24.70;22.92
80988;BME280;70452;39.386;-3.210;2023-07-22T01:01:27;94125.28;;;24.66;23.28
80988;BME280;70452;39.386;-3.210;2023-07-22T01:04:19;94120.94;;;24.69;23.57
80988;BME280;70452;39.386;-3.210;2023-07-22T01:06:56;94115.78;;;24.71;23.07
80988;BME280;70452;39.386;-3.210;2023-07-22T01:09:36;94123.22;;;24.63;24.01
80988;BME280;70452;39.386;-3.210;2023-07-22T01:12:14;94120.03;;;24.61;23.61
80988;BME280;70452;39.386;-3.210;2023-07-22T01:14:56;94123.03;;;24.52;23.48
80988;BME280;70452;39.386;-3.210;2023-07-22T01:17:35;94122.19;;;24.48;25.02
80988;BME280;70452;39.386;-3.210;2023-07-22T01:20:06;94117.13;;;24.54;23.44
80988;BME280;70452;39.386;-3.210;2023-07-22T01:22:38;94117.75;;;24.44;23.65
80988;BME280;70452;39.386;-3.210;2023-07-22T01:25:12;94115.91;;;24.28;23.41
80988;BME280;70452;39.386;-3.210;2023-07-22T01:28:04;94119.41;;;24.25;24.06
80988;BME280;70452;39.386;-3.210;2023-07-22T01:30:39;94118.78;;;24.36;24.06
80988;BME280;70452;39.386;-3.210;2023-07-22T01:33:14;94125.19;;;24.36;23.73
80988;BME280;70452;39.386;-3.210;2023-07-22T01:35:52;94121.41;;;24.25;23.87
80988;BME280;70452;39.386;-3.210;2023-07-22T01:38:32;94125.00;;;24.25;23.46
80988;BME280;70452;39.386;-3.210;2023-07-22T01:41:16;94119.13;;;24.07;23.82
80988;BME280;70452;39.386;-3.210;2023-07-22T01:43:49;94120.66;;;24.05;24.46
80988;BME280;70452;39.386;-3.210;2023-07-22T01:46:31;94113.88;;;24.02;25.13
80988;BME280;70452;39.386;-3.210;2023-07-22T01:49:13;94117.94;;;23.85;24.63
80988;BME280;70452;39.386;-3.210;2023-07-22T01:51:53;94123.34;;;23.78;25.03
80988;BME280;70452;39.386;-3.210;2023-07-22T01:54:26;94123.91;;;23.64;24.82
80988;BME280;70452;39.386;-3.210;2023-07-22T01:56:57;94118.88;;;23.50;25.50
80988;BME280;70452;39.386;-3.210;2023-07-22T01:59:35;94123.91;;;23.45;24.87
80988;BME280;70452;39.386;-3.210;2023-07-22T02:05:17;94121.16;;;23.25;25.21
80988;BME280;70452;39.386;-3.210;2023-07-22T02:07:51;94127.84;;;23.24;25.96
80988;BME280;70452;39.386;-3.210;2023-07-22T02:10:43;94128.25;;;23.42;25.47
80988;BME280;70452;39.386;-3.210;2023-07-22T02:13:23;94128.03;;;23.31;24.78
80988;BME280;70452;39.386;-3.210;2023-07-22T02:15:53;94126.91;;;23.36;25.84
80988;BME280;70452;39.386;-3.210;2023-07-22T02:18:31;94127.16;;;23.47;24.97
80988;BME280;70452;39.386;-3.210;2023-07-22T02:21:05;94125.53;;;23.26;25.03
80988;BME280;70452;39.386;-3.210;2023-07-22T02:23:37;94128.81;;;23.32;25.19
80988;BME280;70452;39.386;-3.210;2023-07-22T02:26:11;94121.88;;;23.22;25.36
80988;BME280;70452;39.386;-3.210;2023-07-22T02:28:47;94122.81;;;23.10;26.03
80988;BME280;70452;39.386;-3.210;2023-07-22T02:31:38;94123.00;;;23.01;25.53
80988;BME280;70452;39.386;-3.210;2023-07-22T02:34:17;94121.22;;;23.09;25.32
80988;BME280;70452;39.386;-3.210;2023-07-22T02:36:57;94123.34;;;23.00;25.28
80988;BME280;70452;39.386;-3.210;2023-07-22T02:39:29;94130.91;;;22.99;26.11
80988;BME280;70452;39.386;-3.210;2023-07-22T02:42:10;94127.34;;;22.83;25.06
80988;BME280;70452;39.386;-3.210;2023-07-22T02:44:49;94127.84;;;22.69;25.49
80988;BME280;70452;39.386;-3.210;2023-07-22T02:47:21;94125.06;;;22.69;26.94
80988;BME280;70452;39.386;-3.210;2023-07-22T02:50:08;94117.41;;;22.62;25.61
80988;BME280;70452;39.386;-3.210;2023-07-22T02:52:48;94124.81;;;22.58;25.99
80988;BME280;70452;39.386;-3.210;2023-07-22T02:55:28;94127.16;;;22.56;26.33
80988;BME280;70452;39.386;-3.210;2023-07-22T02:58:04;94122.50;;;22.60;25.86
80988;BME280;70452;39.386;-3.210;2023-07-22T03:00:41;94122.84;;;22.59;26.36
80988;BME280;70452;39.386;-3.210;2023-07-22T03:03:08;94120.34;;;22.70;26.29
80988;BME280;70452;39.386;-3.210;2023-07-22T03:08:44;94125.84;;;22.85;25.80
80988;BME280;70452;39.386;-3.210;2023-07-22T03:11:17;94131.31;;;22.82;26.16
80988;BME280;70452;39.386;-3.210;2023-07-22T03:13:56;94127.81;;;22.85;26.26
80988;BME280;70452;39.386;-3.210;2023-07-22T03:16:40;94129.50;;;22.90;25.83
80988;BME280;70452;39.386;-3.210;2023-07-22T03:19:21;94135.31;;;23.00;25.82
80988;BME280;70452;39.386;-3.210;2023-07-22T03:21:55;94133.13;;;22.74;26.14
80988;BME280;70452;39.386;-3.210;2023-07-22T03:24:26;94138.28;;;22.56;26.35
80988;BME280;70452;39.386;-3.210;2023-07-22T03:26:52;94133.47;;;22.37;26.39
80988;BME280;70452;39.386;-3.210;2023-07-22T03:29:31;94137.03;;;22.38;26.97
80988;BME280;70452;39.386;-3.210;2023-07-22T03:32:19;94131.41;;;22.34;26.73
80988;BME280;70452;39.386;-3.210;2023-07-22T03:34:58;94127.72;;;21.98;27.27
80988;BME280;70452;39.386;-3.210;2023-07-22T03:37:33;94132.91;;;22.00;27.30
80988;BME280;70452;39.386;-3.210;2023-07-22T03:40:07;94134.53;;;22.01;27.20
80988;BME280;70452;39.386;-3.210;2023-07-22T03:42:57;94131.19;;;21.79;27.38
80988;BME280;70452;39.386;-3.210;2023-07-22T03:45:34;94136.22;;;21.73;27.70
80988;BME280;70452;39.386;-3.210;2023-07-22T03:48:10;94138.69;;;21.63;28.02
80988;BME280;70452;39.386;-3.210;2023-07-22T03:50:48;94139.56;;;21.51;28.39
80988;BME280;70452;39.386;-3.210;2023-07-22T03:53:25;94141.28;;;21.43;28.52
80988;BME280;70452;39.386;-3.210;2023-07-22T03:56:00;94142.16;;;21.31;28.03
80988;BME280;70452;39.386;-3.210;2023-07-22T03:58:37;94142.66;;;21.21;28.39
80988;BME280;70452;39.386;-3.210;2023-07-22T04:01:22;94135.00;;;21.30;28.60
80988;BME280;70452;39.386;-3.210;2023-07-22T04:04:02;94143.06;;;21.35;28.20
80988;BME280;70452;39.386;-3.210;2023-07-22T04:06:42;94139.72;;;21.30;28.50
80988;BME280;70452;39.386;-3.210;2023-07-22T04:09:23;94150.25;;;21.24;28.59
80988;BME280;70452;39.386;-3.210;2023-07-22T04:12:25;94150.97;;;21.21;29.02
80988;BME280;70452;39.386;-3.210;2023-07-22T04:15:13;94148.38;;;21.41;28.68
80988;BME280;70452;39.386;-3.210;2023-07-22T04:18:09;94157.19;;;21.30;28.73
80988;BME280;70452;39.386;-3.210;2023-07-22T04:20:37;94157.38;;;20.97;28.89
80988;BME280;70452;39.386;-3.210;2023-07-22T04:23:18;94154.91;;;20.67;28.87
80988;BME280;70452;39.386;-3.210;2023-07-22T04:25:53;94158.34;;;20.76;29.11
80988;BME280;70452;39.386;-3.210;2023-07-22T04:28:27;94147.97;;;20.61;29.40
80988;BME280;70452;39.386;-3.210;2023-07-22T04:31:08;94155.25;;;20.66;29.33
80988;BME280;70452;39.386;-3.210;2023-07-22T04:33:48;94164.97;;;20.72;29.13
80988;BME280;70452;39.386;-3.210;2023-07-22T04:36:23;94164.00;;;20.80;29.25
80988;BME280;70452;39.386;-3.210;2023-07-22T04:38:57;94166.94;;;21.12;29.39
80988;BME280;70452;39.386;-3.210;2023-07-22T04:41:57;94162.53;;;21.23;28.98
80988;BME280;70452;39.386;-3.210;2023-07-22T04:44:35;94167.72;;;21.12;28.84
80988;BME280;70452;39.386;-3.210;2023-07-22T04:47:22;94160.84;;;21.06;29.01
80988;BME280;70452;39.386;-3.210;2023-07-22T04:49:59;94174.19;;;21.16;29.08
80988;BME280;70452;39.386;-3.210;2023-07-22T04:52:55;94172.09;;;21.26;30.16
80988;BME280;70452;39.386;-3.210;2023-07-22T04:55:44;94178.59;;;21.05;28.32
80988;BME280;70452;39.386;-3.210;2023-07-22T04:58:19;94175.44;;;20.78;29.34
80988;BME280;70452;39.386;-3.210;2023-07-22T05:01:01;94183.63;;;20.26;29.18
80988;BME280;70452;39.386;-3.210;2023-07-22T05:03:42;94183.75;;;20.17;29.56
80988;BME280;70452;39.386;-3.210;2023-07-22T05:06:29;94187.38;;;19.63;30.24
80988;BME280;70452;39.386;-3.210;2023-07-22T05:09:19;94183.13;;;19.53;30.69
80988;BME280;70452;39.386;-3.210;2023-07-22T05:12:04;94179.06;;;19.51;31.02
80988;BME280;70452;39.386;-3.210;2023-07-22T05:14:45;94185.16;;;19.23;31.49
80988;BME280;70452;39.386;-3.210;2023-07-22T05:17:26;94186.03;;;19.15;31.75
80988;BME280;70452;39.386;-3.210;2023-07-22T05:20:07;94189.09;;;19.01;32.06
80988;BME280;70452;39.386;-3.210;2023-07-22T05:22:43;94202.97;;;19.34;31.49
80988;BME280;70452;39.386;-3.210;2023-07-22T05:25:23;94191.94;;;20.26;30.82
80988;BME280;70452;39.386;-3.210;2023-07-22T05:28:01;94189.97;;;20.38;29.61
80988;BME280;70452;39.386;-3.210;2023-07-22T05:30:39;94187.78;;;20.81;28.76
80988;BME280;70452;39.386;-3.210;2023-07-22T05:33:34;94185.78;;;21.06;28.14
80988;BME280;70452;39.386;-3.210;2023-07-22T05:36:08;94194.81;;;20.91;28.25
80988;BME280;70452;39.386;-3.210;2023-07-22T05:38:45;94198.94;;;20.23;29.48
80988;BME280;70452;39.386;-3.210;2023-07-22T05:41:41;94192.59;;;20.96;28.74
80988;BME280;70452;39.386;-3.210;2023-07-22T05:44:21;94189.53;;;21.83;27.29
80988;BME280;70452;39.386;-3.210;2023-07-22T05:47:00;94193.84;;;21.96;27.00
80988;BME280;70452;39.386;-3.210;2023-07-22T05:49:43;94195.53;;;23.32;25.19
80988;BME280;70452;39.386;-3.210;2023-07-22T05:52:22;94190.03;;;23.94;24.35
80988;BME280;70452;39.386;-3.210;2023-07-22T05:55:12;94191.16;;;24.55;23.72
80988;BME280;70452;39.386;-3.210;2023-07-22T05:57:47;94188.03;;;24.37;23.36
80988;BME280;70452;39.386;-3.210;2023-07-22T06:00:55;94189.88;;;24.52;24.14
80988;BME280;70452;39.386;-3.210;2023-07-22T06:03:32;94191.66;;;23.95;23.89
80988;BME280;70452;39.386;-3.210;2023-07-22T06:06:21;94183.41;;;24.95;22.79
80988;BME280;70452;39.386;-3.210;2023-07-22T06:09:00;94184.84;;;26.06;21.89
80988;BME280;70452;39.386;-3.210;2023-07-22T06:11:38;94191.75;;;26.61;21.36
80988;BME280;70452;39.386;-3.210;2023-07-22T06:14:07;94198.59;;;27.19;20.40
80988;BME280;70452;39.386;-3.210;2023-07-22T06:16:57;94207.63;;;26.49;21.27
80988;BME280;70452;39.386;-3.210;2023-07-22T06:19:39;94208.50;;;26.61;20.76
80988;BME280;70452;39.386;-3.210;2023-07-22T06:22:47;94210.56;;;26.23;20.86
80988;BME280;70452;39.386;-3.210;2023-07-22T06:25:25;94222.91;;;25.27;21.89
80988;BME280;70452;39.386;-3.210;2023-07-22T06:30:54;94231.84;;;23.98;24.11
80988;BME280;70452;39.386;-3.210;2023-07-22T06:33:53;94236.88;;;24.11;23.60
80988;BME280;70452;39.386;-3.210;2023-07-22T06:36:33;94237.81;;;23.41;24.64
80988;BME280;70452;39.386;-3.210;2023-07-22T06:39:12;94244.63;;;23.44;24.66
80988;BME280;70452;39.386;-3.210;2023-07-22T06:42:23;94246.56;;;24.41;23.55
80988;BME280;70452;39.386;-3.210;2023-07-22T06:44:54;94237.41;;;25.36;22.39
80988;BME280;70452;39.386;-3.210;2023-07-22T06:47:31;94240.13;;;26.27;21.13
80988;BME280;70452;39.386;-3.210;2023-07-22T06:50:15;94245.88;;;26.83;20.52
80988;BME280;70452;39.386;-3.210;2023-07-22T06:52:52;94239.13;;;26.46;20.63
80988;BME280;70452;39.386;-3.210;2023-07-22T06:55:38;94239.63;;;27.04;20.01
80988;BME280;70452;39.386;-3.210;2023-07-22T06:58:17;94242.16;;;27.90;19.40
80988;BME280;70452;39.386;-3.210;2023-07-22T07:01:12;94253.53;;;28.29;18.70
80988;BME280;70452;39.386;-3.210;2023-07-22T07:03:57;94253.25;;;28.67;18.71
80988;BME280;70452;39.386;-3.210;2023-07-22T07:06:32;94257.28;;;28.91;18.27
80988;BME280;70452;39.386;-3.210;2023-07-22T07:09:10;94260.06;;;29.09;17.66
80988;BME280;70452;39.386;-3.210;2023-07-22T07:11:55;94262.09;;;29.19;17.51
80988;BME280;70452;39.386;-3.210;2023-07-22T07:14:35;94261.28;;;29.51;17.16
80988;BME280;70452;39.386;-3.210;2023-07-22T07:17:26;94260.06;;;29.55;17.59
80988;BME280;70452;39.386;-3.210;2023-07-22T07:20:00;94265.22;;;29.82;17.08
80988;BME280;70452;39.386;-3.210;2023-07-22T07:22:41;94257.69;;;29.47;17.38
80988;BME280;70452;39.386;-3.210;2023-07-22T07:25:18;94271.31;;;29.55;17.48
80988;BME280;70452;39.386;-3.210;2023-07-22T07:27:52;94273.63;;;29.89;17.25
80988;BME280;70452;39.386;-3.210;2023-07-22T07:30:41;94267.22;;;29.92;17.25
80988;BME280;70452;39.386;-3.210;2023-07-22T07:33:24;94272.00;;;30.03;17.39
80988;BME280;70452;39.386;-3.210;2023-07-22T07:36:05;94279.28;;;29.71;17.55
80988;BME280;70452;39.386;-3.210;2023-07-22T07:38:41;94286.88;;;29.92;17.20
80988;BME280;70452;39.386;-3.210;2023-07-22T07:41:34;94286.09;;;29.88;17.72
80988;BME280;70452;39.386;-3.210;2023-07-22T07:44:14;94290.06;;;29.95;17.75
80988;BME280;70452;39.386;-3.210;2023-07-22T07:46:50;94285.50;;;30.40;16.83
80988;BME280;70452;39.386;-3.210;2023-07-22T07:49:34;94296.09;;;29.93;17.04
80988;BME280;70452;39.386;-3.210;2023-07-22T07:52:28;94297.75;;;29.80;17.02
80988;BME280;70452;39.386;-3.210;2023-07-22T07:55:07;94285.78;;;27.91;18.78
80988;BME280;70452;39.386;-3.210;2023-07-22T07:57:48;94290.69;;;28.12;19.05
80988;BME280;70452;39.386;-3.210;2023-07-22T08:03:45;94282.78;;;27.58;19.92
80988;BME280;70452;39.386;-3.210;2023-07-22T08:06:21;94295.13;;;27.50;19.96
80988;BME280;70452;39.386;-3.210;2023-07-22T08:08:52;94280.78;;;28.36;19.36
80988;BME280;70452;39.386;-3.210;2023-07-22T08:11:39;94290.91;;;28.84;19.00
80988;BME280;70452;39.386;-3.210;2023-07-22T08:14:20;94289.31;;;29.72;17.94
80988;BME280;70452;39.386;-3.210;2023-07-22T08:17:00;94298.13;;;29.13;18.10
80988;BME280;70452;39.386;-3.210;2023-07-22T08:19:33;94290.56;;;29.35;17.67
80988;BME280;70452;39.386;-3.210;2023-07-22T08:22:03;94292.53;;;27.82;19.45
80988;BME280;70452;39.386;-3.210;2023-07-22T08:24:41;94298.50;;;28.72;18.89
80988;BME280;70452;39.386;-3.210;2023-07-22T08:27:24;94296.81;;;28.42;19.04
80988;BME280;70452;39.386;-3.210;2023-07-22T08:29:58;94295.13;;;28.23;19.25
80988;BME280;70452;39.386;-3.210;2023-07-22T08:32:29;94296.53;;;28.87;18.61
80988;BME280;70452;39.386;-3.210;2023-07-22T08:35:11;94300.06;;;28.55;19.17
80988;BME280;70452;39.386;-3.210;2023-07-22T08:37:46;94298.94;;;28.85;18.85
80988;BME280;70452;39.386;-3.210;2023-07-22T08:40:26;94289.75;;;29.21;18.54
80988;BME280;70452;39.386;-3.210;2023-07-22T08:42:58;94285.69;;;29.86;17.79
80988;BME280;70452;39.386;-3.210;2023-07-22T08:45:29;94293.19;;;30.22;17.61
80988;BME280;70452;39.386;-3.210;2023-07-22T08:48:14;94290.19;;;29.26;18.37
80988;BME280;70452;39.386;-3.210;2023-07-22T08:51:18;94286.72;;;28.16;19.63
80988;BME280;70452;39.386;-3.210;2023-07-22T08:53:51;94289.22;;;28.54;19.84
80988;BME280;70452;39.386;-3.210;2023-07-22T08:56:26;94293.75;;;29.38;18.62
80988;BME280;70452;39.386;-3.210;2023-07-22T08:59:17;94294.38;;;30.35;17.43
80988;BME280;70452;39.386;-3.210;2023-07-22T09:01:58;94298.50;;;30.87;16.96
80988;BME280;70452;39.386;-3.210;2023-07-22T09:04:30;94299.50;;;31.18;16.64
80988;BME280;70452;39.386;-3.210;2023-07-22T09:07:08;94306.34;;;31.17;16.61
80988;BME280;70452;39.386;-3.210;2023-07-22T09:09:43;94311.25;;;30.14;18.00
80988;BME280;70452;39.386;-3.210;2023-07-22T09:12:25;94320.88;;;30.20;17.62
80988;BME280;70452;39.386;-3.210;2023-07-22T09:14:59;94324.50;;;31.09;17.12
80988;BME280;70452;39.386;-3.210;2023-07-22T09:17:47;94313.38;;;31.43;16.91
80988;BME280;70452;39.386;-3.210;2023-07-22T09:20:29;94315.56;;;31.21;16.80
80988;BME280;70452;39.386;-3.210;2023-07-22T09:22:59;94314.47;;;31.60;16.67
80988;BME280;70452;39.386;-3.210;2023-07-22T09:25:35;94318.88;;;31.61;16.37
80988;BME280;70452;39.386;-3.210;2023-07-22T09:28:04;94324.84;;;32.12;15.94
80988;BME280;70452;39.386;-3.210;2023-07-22T09:30:44;94325.16;;;32.52;15.37
80988;BME280;70452;39.386;-3.210;2023-07-22T09:33:35;94314.59;;;32.60;15.46
80988;BME280;70452;39.386;-3.210;2023-07-22T09:36:30;94315.06;;;32.55;15.37
80988;BME280;70452;39.386;-3.210;2023-07-22T09:39:13;94315.31;;;32.67;15.17
80988;BME280;70452;39.386;-3.210;2023-07-22T09:42:00;94314.13;;;31.47;16.27
80988;BME280;70452;39.386;-3.210;2023-07-22T09:44:34;94313.47;;;31.81;16.08
80988;BME280;70452;39.386;-3.210;2023-07-22T09:47:16;94313.94;;;32.14;15.64
80988;BME280;70452;39.386;-3.210;2023-07-22T09:49:49;94313.22;;;31.12;16.57
80988;BME280;70452;39.386;-3.210;2023-07-22T09:52:32;94311.78;;;31.87;16.10
80988;BME280;70452;39.386;-3.210;2023-07-22T09:55:09;94307.47;;;31.27;16.23
80988;BME280;70452;39.386;-3.210;2023-07-22T09:57:53;94307.22;;;31.59;15.94
80988;BME280;70452;39.386;-3.210;2023-07-22T10:00:34;94303.56;;;32.04;15.58
80988;BME280;70452;39.386;-3.210;2023-07-22T10:03:10;94310.50;;;31.95;15.72
80988;BME280;70452;39.386;-3.210;2023-07-22T10:06:01;94306.53;;;32.62;15.19
80988;BME280;70452;39.386;-3.210;2023-07-22T10:08:43;94307.72;;;32.64;15.06
80988;BME280;70452;39.386;-3.210;2023-07-22T10:11:19;94311.41;;;32.88;14.63
80988;BME280;70452;39.386;-3.210;2023-07-22T10:14:02;94306.34;;;33.03;14.70
80988;BME280;70452;39.386;-3.210;2023-07-22T10:16:42;94304.06;;;32.95;14.83
80988;BME280;70452;39.386;-3.210;2023-07-22T10:19:18;94302.63;;;33.37;14.60
80988;BME280;70452;39.386;-3.210;2023-07-22T10:21:55;94310.53;;;33.73;14.16
80988;BME280;70452;39.386;-3.210;2023-07-22T10:24:28;94293.38;;;33.60;14.43
80988;BME280;70452;39.386;-3.210;2023-07-22T10:27:07;94307.09;;;33.86;14.47
80988;BME280;70452;39.386;-3.210;2023-07-22T10:29:42;94310.16;;;34.15;14.30
80988;BME280;70452;39.386;-3.210;2023-07-22T10:32:11;94302.66;;;33.85;14.36
80988;BME280;70452;39.386;-3.210;2023-07-22T10:34:52;94307.50;;;33.10;14.92
80988;BME280;70452;39.386;-3.210;2023-07-22T10:37:35;94310.03;;;33.28;14.75
80988;BME280;70452;39.386;-3.210;2023-07-22T10:43:40;94310.31;;;33.60;14.72
80988;BME280;70452;39.386;-3.210;2023-07-22T10:46:20;94306.59;;;33.91;14.26
80988;BME280;70452;39.386;-3.210;2023-07-22T10:49:29;94299.41;;;33.86;14.57
80988;BME280;70452;39.386;-3.210;2023-07-22T10:52:09;94299.19;;;33.50;15.02
80988;BME280;70452;39.386;-3.210;2023-07-22T10:54:44;94294.66;;;33.56;14.83
80988;BME280;70452;39.386;-3.210;2023-07-22T10:57:24;94294.53;;;33.63;14.96
80988;BME280;70452;39.386;-3.210;2023-07-22T11:00:06;94297.41;;;34.07;14.59
80988;BME280;70452;39.386;-3.210;2023-07-22T11:03:08;94294.31;;;34.21;14.34
80988;BME280;70452;39.386;-3.210;2023-07-22T11:08:40;94294.53;;;34.50;14.12
80988;BME280;70452;39.386;-3.210;2023-07-22T11:11:41;94287.63;;;34.11;14.61
80988;BME280;70452;39.386;-3.210;2023-07-22T11:14:24;94286.88;;;33.87;14.78
80988;BME280;70452;39.386;-3.210;2023-07-22T11:16:50;94291.59;;;34.14;14.98
80988;BME280;70452;39.386;-3.210;2023-07-22T11:19:28;94291.56;;;34.58;14.45
80988;BME280;70452;39.386;-3.210;2023-07-22T11:22:04;94286.41;;;34.72;14.28
80988;BME280;70452;39.386;-3.210;2023-07-22T11:24:42;94281.16;;;34.91;13.55
80988;BME280;70452;39.386;-3.210;2023-07-22T11:27:22;94282.25;;;35.13;13.36
80988;BME280;70452;39.386;-3.210;2023-07-22T11:30:00;94280.19;;;35.14;13.67
80988;BME280;70452;39.386;-3.210;2023-07-22T11:32:42;94274.88;;;35.00;13.48
80988;BME280;70452;39.386;-3.210;2023-07-22T11:35:22;94278.41;;;34.87;14.20
80988;BME280;70452;39.386;-3.210;2023-07-22T11:38:04;94278.06;;;34.45;14.54
80988;BME280;70452;39.386;-3.210;2023-07-22T11:40:36;94276.25;;;34.15;14.77
80988;BME280;70452;39.386;-3.210;2023-07-22T11:43:08;94265.59;;;33.32;15.37
80988;BME280;70452;39.386;-3.210;2023-07-22T11:45:42;94257.66;;;33.74;14.93
80988;BME280;70452;39.386;-3.210;2023-07-22T11:48:17;94257.06;;;34.26;14.18
80988;BME280;70452;39.386;-3.210;2023-07-22T11:50:58;94255.94;;;34.60;13.73
80988;BME280;70452;39.386;-3.210;2023-07-22T11:53:29;94259.91;;;34.83;13.82
80988;BME280;70452;39.386;-3.210;2023-07-22T11:56:09;94251.78;;;34.85;13.74
80988;BME280;70452;39.386;-3.210;2023-07-22T11:58:51;94253.19;;;34.77;13.89
80988;BME280;70452;39.386;-3.210;2023-07-22T12:01:28;94257.91;;;34.63;14.04
80988;BME280;70452;39.386;-3.210;2023-07-22T12:04:08;94242.31;;;34.75;13.76
80988;BME280;70452;39.386;-3.210;2023-07-22T12:06:41;94244.00;;;35.05;13.46
80988;BME280;70452;39.386;-3.210;2023-07-22T12:09:32;94237.88;;;35.43;13.32
80988;BME280;70452;39.386;-3.210;2023-07-22T12:12:08;94240.50;;;35.18;13.51
80988;BME280;70452;39.386;-3.210;2023-07-22T12:15:17;94242.16;;;34.62;13.84
80988;BME280;70452;39.386;-3.210;2023-07-22T12:20:33;94240.31;;;34.92;13.14
80988;BME280;70452;39.386;-3.210;2023-07-22T12:23:14;94235.38;;;35.12;13.06
80988;BME280;70452;39.386;-3.210;2023-07-22T12:25:46;94227.63;;;35.33;12.57
80988;BME280;70452;39.386;-3.210;2023-07-22T12:28:27;94237.31;;;34.99;12.85
80988;BME280;70452;39.386;-3.210;2023-07-22T12:31:07;94229.63;;;35.16;11.99
80988;BME280;70452;39.386;-3.210;2023-07-22T12:33:41;94226.19;;;35.25;12.36
80988;BME280;70452;39.386;-3.210;2023-07-22T12:36:34;94227.03;;;35.55;12.33
80988;BME280;70452;39.386;-3.210;2023-07-22T12:39:01;94223.59;;;35.80;11.96
80988;BME280;70452;39.386;-3.210;2023-07-22T12:41:45;94228.25;;;35.70;11.63
80988;BME280;70452;39.386;-3.210;2023-07-22T12:44:16;94221.69;;;35.90;11.75
80988;BME280;70452;39.386;-3.210;2023-07-22T12:46:57;94219.22;;;35.92;11.79
80988;BME280;70452;39.386;-3.210;2023-07-22T12:49:30;94216.31;;;36.08;11.55
80988;BME280;70452;39.386;-3.210;2023-07-22T12:52:17;94209.97;;;36.17;11.54
80988;BME280;70452;39.386;-3.210;2023-07-22T12:54:57;94215.38;;;35.98;11.76
80988;BME280;70452;39.386;-3.210;2023-07-22T12:57:30;94204.25;;;35.45;12.53
80988;BME280;70452;39.386;-3.210;2023-07-22T13:00:19;94205.00;;;35.62;12.31
80988;BME280;70452;39.386;-3.210;2023-07-22T13:02:51;94204.53;;;35.80;11.18
80988;BME280;70452;39.386;-3.210;2023-07-22T13:05:23;94209.63;;;36.02;10.63
80988;BME280;70452;39.386;-3.210;2023-07-22T13:07:51;94202.25;;;36.04;11.10
80988;BME280;70452;39.386;-3.210;2023-07-22T13:10:18;94205.97;;;36.01;11.11
80988;BME280;70452;39.386;-3.210;2023-07-22T13:12:54;94200.75;;;36.00;10.78
80988;BME280;70452;39.386;-3.210;2023-07-22T13:15:46;94197.09;;;35.86;11.25
80988;BME280;70452;39.386;-3.210;2023-07-22T13:18:20;94184.56;;;36.13;11.57
80988;BME280;70452;39.386;-3.210;2023-07-22T13:20:59;94187.66;;;36.19;11.46
80988;BME280;70452;39.386;-3.210;2023-07-22T13:23:33;94187.13;;;35.95;11.91
80988;BME280;70452;39.386;-3.210;2023-07-22T13:26:17;94194.13;;;36.19;11.23
80988;BME280;70452;39.386;-3.210;2023-07-22T13:28:55;94184.66;;;36.26;10.70
80988;BME280;70452;39.386;-3.210;2023-07-22T13:31:39;94195.47;;;36.15;11.15
80988;BME280;70452;39.386;-3.210;2023-07-22T13:34:22;94195.47;;;36.15;10.73
80988;BME280;70452;39.386;-3.210;2023-07-22T13:37:15;94192.69;;;35.98;10.68
80988;BME280;70452;39.386;-3.210;2023-07-22T13:39:54;94184.16;;;35.85;11.46
80988;BME280;70452;39.386;-3.210;2023-07-22T13:42:32;94190.03;;;35.78;11.43
80988;BME280;70452;39.386;-3.210;2023-07-22T13:45:08;94191.88;;;35.85;11.77
80988;BME280;70452;39.386;-3.210;2023-07-22T13:47:44;94183.06;;;35.50;11.97
80988;BME280;70452;39.386;-3.210;2023-07-22T13:50:18;94174.44;;;35.24;12.33
80988;BME280;70452;39.386;-3.210;2023-07-22T13:52:52;94175.38;;;35.51;12.13
80988;BME280;70452;39.386;-3.210;2023-07-22T13:55:24;94178.78;;;35.58;11.64
80988;BME280;70452;39.386;-3.210;2023-07-22T13:57:55;94183.03;;;35.83;11.56
80988;BME280;70452;39.386;-3.210;2023-07-22T14:00:34;94180.38;;;35.76;11.70
80988;BME280;70452;39.386;-3.210;2023-07-22T14:03:06;94168.25;;;35.59;11.39
80988;BME280;70452;39.386;-3.210;2023-07-22T14:05:44;94167.38;;;35.62;11.53
80988;BME280;70452;39.386;-3.210;2023-07-22T14:08:16;94168.59;;;35.77;11.78
80988;BME280;70452;39.386;-3.210;2023-07-22T14:10:56;94163.44;;;35.89;11.06
80988;BME280;70452;39.386;-3.210;2023-07-22T14:13:32;94158.66;;;35.85;11.05
80988;BME280;70452;39.386;-3.210;2023-07-22T14:16:05;94155.28;;;35.91;11.28